sensor_id;sensor_type;location;lat;lon;timestamp;P1;durP1;ratioP1;P2;durP2;ratioP2
3979;SDS011;2004;52.452;13.120;2022-09-29T00:02:29;6.53;;;5.53;;
3979;SDS011;2004;52.452;13.120;2022-09-29T00:10:19;6.57;;;5.93;;
3979;SDS011;2004;52.452;13.120;2022-09-29T00:18:10;8.30;;;6.33;;
3979;SDS011;2004;52.452;13.120;2022-09-29T00:34:02;8.00;;;6.30;;
3979;SDS011;2004;52.452;13.120;2022-09-29T00:41:52;6.03;;;5.27;;
3979;SDS011;2004;52.452;13.120;2022-09-29T00:49:44;7.77;;;5.90;;
3979;SDS011;2004;52.452;13.120;2022-09-29T01:05:50;9.20;;;5.13;;
3979;SDS011;2004;52.452;13.120;2022-09-29T01:13:48;10.40;;;7.10;;
3979;SDS011;2004;52.452;13.120;2022-09-29T01:21:48;8.13;;;6.13;;
3979;SDS011;2004;52.452;13.120;2022-09-29T01:30:03;6.63;;;5.27;;
3979;SDS011;2004;52.452;13.120;2022-09-29T01:38:10;13.23;;;7.50;;
3979;SDS011;2004;52.452;13.120;2022-09-29T01:46:33;9.00;;;6.87;;
3979;SDS011;2004;52.452;13.120;2022-09-29T01:54:42;11.03;;;7.63;;
3979;SDS011;2004;52.452;13.120;2022-09-29T02:03:02;11.70;;;9.40;;
3979;SDS011;2004;52.452;13.120;2022-09-29T02:11:02;10.63;;;9.30;;
3979;SDS011;2004;52.452;13.120;2022-09-29T02:19:00;13.60;;;10.27;;
3979;SDS011;2004;52.452;13.120;2022-09-29T02:26:57;12.23;;;9.47;;
3979;SDS011;2004;52.452;13.120;2022-09-29T02:34:48;15.93;;;9.90;;
3979;SDS011;2004;52.452;13.120;2022-09-29T02:51:01;15.80;;;10.80;;
3979;SDS011;2004;52.452;13.120;2022-09-29T02:59:03;13.20;;;9.20;;
3979;SDS011;2004;52.452;13.120;2022-09-29T03:06:59;14.90;;;10.47;;
3979;SDS011;2004;52.452;13.120;2022-09-29T03:14:49;14.83;;;10.10;;
3979;SDS011;2004;52.452;13.120;2022-09-29T03:22:40;14.70;;;10.87;;
3979;SDS011;2004;52.452;13.120;2022-09-29T03:30:30;15.90;;;11.23;;
3979;SDS011;2004;52.452;13.120;2022-09-29T03:38:21;14.23;;;10.50;;
3979;SDS011;2004;52.452;13.120;2022-09-29T03:46:11;15.90;;;11.03;;
3979;SDS011;2004;52.452;13.120;2022-09-29T03:54:02;18.70;;;11.13;;
3979;SDS011;2004;52.452;13.120;2022-09-29T04:01:52;17.53;;;11.30;;
3979;SDS011;2004;52.452;13.120;2022-09-29T04:09:43;16.77;;;11.70;;
3979;SDS011;2004;52.452;13.120;2022-09-29T04:17:33;21.60;;;12.80;;
3979;SDS011;2004;52.452;13.120;2022-09-29T04:25:24;19.17;;;12.97;;
3979;SDS011;2004;52.452;13.120;2022-09-29T04:33:14;20.57;;;13.07;;
3979;SDS011;2004;52.452;13.120;2022-09-29T04:41:05;20.30;;;12.77;;
3979;SDS011;2004;52.452;13.120;2022-09-29T04:48:55;19.57;;;13.10;;
3979;SDS011;2004;52.452;13.120;2022-09-29T04:56:49;23.63;;;12.20;;
3979;SDS011;2004;52.452;13.120;2022-09-29T05:04:40;22.70;;;13.37;;
3979;SDS011;2004;52.452;13.120;2022-09-29T05:12:30;17.20;;;11.70;;
3979;SDS011;2004;52.452;13.120;2022-09-29T05:20:21;23.27;;;12.83;;
3979;SDS011;2004;52.452;13.120;2022-09-29T05:28:12;17.87;;;12.00;;
3979;SDS011;2004;52.452;13.120;2022-09-29T05:36:04;21.47;;;12.53;;
3979;SDS011;2004;52.452;13.120;2022-09-29T05:43:56;20.60;;;13.80;;
3979;SDS011;2004;52.452;13.120;2022-09-29T05:51:48;20.50;;;13.10;;
3979;SDS011;2004;52.452;13.120;2022-09-29T05:59:38;18.47;;;12.80;;
3979;SDS011;2004;52.452;13.120;2022-09-29T06:07:29;22.10;;;13.57;;
3979;SDS011;2004;52.452;13.120;2022-09-29T06:15:19;23.10;;;12.90;;
3979;SDS011;2004;52.452;13.120;2022-09-29T06:23:10;20.07;;;13.37;;
3979;SDS011;2004;52.452;13.120;2022-09-29T06:31:01;23.03;;;13.70;;
3979;SDS011;2004;52.452;13.120;2022-09-29T06:38:56;22.43;;;13.60;;
3979;SDS011;2004;52.452;13.120;2022-09-29T06:46:47;18.40;;;12.03;;
3979;SDS011;2004;52.452;13.120;2022-09-29T06:54:37;23.30;;;14.10;;
3979;SDS011;2004;52.452;13.120;2022-09-29T07:02:28;23.83;;;13.50;;
3979;SDS011;2004;52.452;13.120;2022-09-29T07:10:18;20.97;;;12.23;;
3979;SDS011;2004;52.452;13.120;2022-09-29T07:18:09;15.73;;;10.50;;
3979;SDS011;2004;52.452;13.120;2022-09-29T07:26:00;23.90;;;13.50;;
3979;SDS011;2004;52.452;13.120;2022-09-29T07:33:51;18.73;;;13.50;;
3979;SDS011;2004;52.452;13.120;2022-09-29T07:41:42;25.03;;;14.97;;
3979;SDS011;2004;52.452;13.120;2022-09-29T07:49:32;21.97;;;13.67;;
3979;SDS011;2004;52.452;13.120;2022-09-29T07:57:22;22.67;;;14.90;;
3979;SDS011;2004;52.452;13.120;2022-09-29T08:05:13;23.50;;;14.53;;
3979;SDS011;2004;52.452;13.120;2022-09-29T08:13:03;29.80;;;15.70;;
3979;SDS011;2004;52.452;13.120;2022-09-29T08:20:54;21.90;;;13.10;;
3979;SDS011;2004;52.452;13.120;2022-09-29T08:28:45;16.70;;;12.47;;
3979;SDS011;2004;52.452;13.120;2022-09-29T08:36:36;21.90;;;14.53;;
3979;SDS011;2004;52.452;13.120;2022-09-29T08:44:35;18.60;;;12.03;;
3979;SDS011;2004;52.452;13.120;2022-09-29T08:52:30;21.10;;;13.27;;
3979;SDS011;2004;52.452;13.120;2022-09-29T09:00:29;17.07;;;11.97;;
3979;SDS011;2004;52.452;13.120;2022-09-29T09:08:43;18.03;;;12.23;;
3979;SDS011;2004;52.452;13.120;2022-09-29T09:16:59;15.80;;;10.10;;
3979;SDS011;2004;52.452;13.120;2022-09-29T09:25:18;20.43;;;11.07;;
3979;SDS011;2004;52.452;13.120;2022-09-29T09:33:13;15.47;;;10.83;;
3979;SDS011;2004;52.452;13.120;2022-09-29T09:41:12;11.87;;;9.50;;
3979;SDS011;2004;52.452;13.120;2022-09-29T09:49:25;12.10;;;9.30;;
3979;SDS011;2004;52.452;13.120;2022-09-29T10:05:49;12.03;;;9.13;;
3979;SDS011;2004;52.452;13.120;2022-09-29T10:13:39;10.97;;;7.47;;
3979;SDS011;2004;52.452;13.120;2022-09-29T10:29:32;8.17;;;6.70;;
3979;SDS011;2004;52.452;13.120;2022-09-29T10:37:32;7.10;;;5.40;;
3979;SDS011;2004;52.452;13.120;2022-09-29T10:45:27;8.00;;;5.07;;
3979;SDS011;2004;52.452;13.120;2022-09-29T10:53:23;4.53;;;4.13;;
3979;SDS011;2004;52.452;13.120;2022-09-29T11:01:20;5.70;;;5.00;;
3979;SDS011;2004;52.452;13.120;2022-09-29T11:17:18;4.20;;;3.80;;
3979;SDS011;2004;52.452;13.120;2022-09-29T12:15:50;3.73;;;3.17;;
3979;SDS011;2004;52.452;13.120;2022-09-29T12:23:45;3.80;;;1.53;;
3979;SDS011;2004;52.452;13.120;2022-09-29T12:31:38;2.90;;;2.27;;
3979;SDS011;2004;52.452;13.120;2022-09-29T12:47:56;2.17;;;1.97;;
3979;SDS011;2004;52.452;13.120;2022-09-29T13:12:28;1.33;;;1.20;;
3979;SDS011;2004;52.452;13.120;2022-09-29T13:20:57;3.13;;;1.60;;
3979;SDS011;2004;52.452;13.120;2022-09-29T13:29:09;1.30;;;1.20;;
3979;SDS011;2004;52.452;13.120;2022-09-29T13:37:10;2.10;;;1.70;;
3979;SDS011;2004;52.452;13.120;2022-09-29T13:45:14;2.00;;;1.33;;
3979;SDS011;2004;52.452;13.120;2022-09-29T14:01:32;1.60;;;1.50;;
3979;SDS011;2004;52.452;13.120;2022-09-29T14:09:25;1.97;;;1.07;;
3979;SDS011;2004;52.452;13.120;2022-09-29T14:33:13;1.93;;;1.50;;
3979;SDS011;2004;52.452;13.120;2022-09-29T15:06:43;2.80;;;1.50;;
3979;SDS011;2004;52.452;13.120;2022-09-29T15:14:38;1.80;;;1.57;;
3979;SDS011;2004;52.452;13.120;2022-09-29T15:30:22;1.43;;;1.33;;
3979;SDS011;2004;52.452;13.120;2022-09-29T15:46:20;1.30;;;1.20;;
3979;SDS011;2004;52.452;13.120;2022-09-29T15:54:27;1.47;;;1.33;;
3979;SDS011;2004;52.452;13.120;2022-09-29T16:02:35;2.67;;;2.47;;
3979;SDS011;2004;52.452;13.120;2022-09-29T16:10:40;2.03;;;1.90;;
3979;SDS011;2004;52.452;13.120;2022-09-29T16:43:28;5.83;;;2.07;;
3979;SDS011;2004;52.452;13.120;2022-09-29T16:51:21;2.00;;;1.90;;
3979;SDS011;2004;52.452;13.120;2022-09-29T16:59:17;2.10;;;1.80;;
3979;SDS011;2004;52.452;13.120;2022-09-29T17:07:10;3.50;;;3.20;;
3979;SDS011;2004;52.452;13.120;2022-09-29T17:15:04;2.37;;;2.17;;
3979;SDS011;2004;52.452;13.120;2022-09-29T17:22:55;5.80;;;5.20;;
3979;SDS011;2004;52.452;13.120;2022-09-29T17:30:46;6.20;;;5.60;;
3979;SDS011;2004;52.452;13.120;2022-09-29T17:38:37;6.00;;;4.60;;
3979;SDS011;2004;52.452;13.120;2022-09-29T17:46:27;5.10;;;4.70;;
3979;SDS011;2004;52.452;13.120;2022-09-29T17:54:18;9.37;;;5.23;;
3979;SDS011;2004;52.452;13.120;2022-09-29T18:02:13;15.60;;;9.50;;
3979;SDS011;2004;52.452;13.120;2022-09-29T18:10:14;8.03;;;4.77;;
3979;SDS011;2004;52.452;13.120;2022-09-29T18:18:09;8.10;;;5.10;;
3979;SDS011;2004;52.452;13.120;2022-09-29T18:26:02;6.60;;;4.10;;
3979;SDS011;2004;52.452;13.120;2022-09-29T18:33:54;5.60;;;4.60;;
3979;SDS011;2004;52.452;13.120;2022-09-29T18:41:45;5.27;;;4.67;;
3979;SDS011;2004;52.452;13.120;2022-09-29T18:49:35;7.90;;;5.93;;
3979;SDS011;2004;52.452;13.120;2022-09-29T18:57:26;6.63;;;5.40;;
3979;SDS011;2004;52.452;13.120;2022-09-29T19:05:21;5.80;;;5.30;;
3979;SDS011;2004;52.452;13.120;2022-09-29T19:13:12;8.27;;;6.30;;
3979;SDS011;2004;52.452;13.120;2022-09-29T19:21:07;11.13;;;7.47;;
3979;SDS011;2004;52.452;13.120;2022-09-29T19:37:27;9.00;;;7.70;;
3979;SDS011;2004;52.452;13.120;2022-09-29T19:45:18;13.17;;;10.67;;
3979;SDS011;2004;52.452;13.120;2022-09-29T19:53:10;9.37;;;7.40;;
3979;SDS011;2004;52.452;13.120;2022-09-29T20:01:01;7.10;;;5.97;;
3979;SDS011;2004;52.452;13.120;2022-09-29T20:08:51;8.37;;;7.10;;
3979;SDS011;2004;52.452;13.120;2022-09-29T20:16:42;8.70;;;7.47;;
3979;SDS011;2004;52.452;13.120;2022-09-29T20:24:34;7.53;;;6.70;;
3979;SDS011;2004;52.452;13.120;2022-09-29T20:32:24;12.33;;;9.33;;
3979;SDS011;2004;52.452;13.120;2022-09-29T20:40:17;12.73;;;10.50;;
3979;SDS011;2004;52.452;13.120;2022-09-29T20:48:08;13.07;;;11.67;;
3979;SDS011;2004;52.452;13.120;2022-09-29T20:56:00;13.77;;;10.20;;
3979;SDS011;2004;52.452;13.120;2022-09-29T21:03:55;12.97;;;9.97;;
3979;SDS011;2004;52.452;13.120;2022-09-29T21:11:46;10.57;;;9.47;;
3979;SDS011;2004;52.452;13.120;2022-09-29T21:19:38;11.60;;;9.40;;
3979;SDS011;2004;52.452;13.120;2022-09-29T21:27:28;10.20;;;8.83;;
3979;SDS011;2004;52.452;13.120;2022-09-29T21:35:20;11.60;;;8.83;;
3979;SDS011;2004;52.452;13.120;2022-09-29T21:43:11;10.70;;;9.50;;
3979;SDS011;2004;52.452;13.120;2022-09-29T21:51:06;9.07;;;8.10;;
3979;SDS011;2004;52.452;13.120;2022-09-29T21:58:58;10.60;;;8.23;;
3979;SDS011;2004;52.452;13.120;2022-09-29T22:06:49;10.20;;;8.57;;
3979;SDS011;2004;52.452;13.120;2022-09-29T22:14:39;10.20;;;7.90;;
3979;SDS011;2004;52.452;13.120;2022-09-29T22:22:30;8.90;;;7.70;;
3979;SDS011;2004;52.452;13.120;2022-09-29T22:30:21;10.27;;;7.40;;
3979;SDS011;2004;52.452;13.120;2022-09-29T22:38:12;9.65;;;8.43;;
3979;SDS011;2004;52.452;13.120;2022-09-29T22:46:02;9.40;;;8.37;;
3979;SDS011;2004;52.452;13.120;2022-09-29T22:53:53;7.93;;;6.70;;
3979;SDS011;2004;52.452;13.120;2022-09-29T23:01:44;7.33;;;6.60;;
3979;SDS011;2004;52.452;13.120;2022-09-29T23:09:36;9.40;;;6.60;;
3979;SDS011;2004;52.452;13.120;2022-09-29T23:17:26;6.93;;;6.23;;
3979;SDS011;2004;52.452;13.120;2022-09-29T23:25:18;7.17;;;6.47;;
3979;SDS011;2004;52.452;13.120;2022-09-29T23:33:09;8.03;;;5.80;;
3979;SDS011;2004;52.452;13.120;2022-09-29T23:40:59;8.77;;;6.83;;
3979;SDS011;2004;52.452;13.120;2022-09-29T23:48:50;6.43;;;5.87;;
3979;SDS011;2004;52.452;13.120;2022-09-29T23:56:41;6.70;;;6.10;;
